createdAt,value
2018-08-07T00:01:36.018Z,4.57
2018-08-07T00:04:04.500Z,4.13
2018-08-07T00:06:32.901Z,4.40
2018-08-07T00:09:01.354Z,4.33
2018-08-07T00:11:29.615Z,4.13
2018-08-07T00:13:58.064Z,4.23
2018-08-07T00:16:26.529Z,4.30
2018-08-07T00:18:54.973Z,4.67
2018-08-07T00:21:23.357Z,4.57
2018-08-07T00:23:51.780Z,4.77
2018-08-07T00:26:20.188Z,4.80
2018-08-07T00:28:48.598Z,4.20
2018-08-07T00:31:17.118Z,4.53
2018-08-07T00:33:45.562Z,4.43
2018-08-07T00:36:13.974Z,4.50
2018-08-07T00:38:42.437Z,4.70
2018-08-07T00:41:10.914Z,4.80
2018-08-07T00:43:39.038Z,4.70
2018-08-07T00:46:07.582Z,4.73
2018-08-07T00:48:36.019Z,4.73
2018-08-07T00:51:04.673Z,4.90
2018-08-07T00:53:33.193Z,4.70
2018-08-07T00:56:01.722Z,5.00
2018-08-07T00:58:30.126Z,4.50
2018-08-07T01:00:58.569Z,4.63
2018-08-07T01:03:26.718Z,4.47
2018-08-07T01:05:55.237Z,4.67
2018-08-07T01:08:23.713Z,5.00
2018-08-07T01:10:52.140Z,4.60
2018-08-07T01:13:20.582Z,5.10
2018-08-07T01:15:49.121Z,5.00
2018-08-07T01:18:17.556Z,4.60
2018-08-07T01:20:45.941Z,5.17
2018-08-07T01:23:14.334Z,5.23
2018-08-07T01:25:42.775Z,5.13
2018-08-07T01:28:11.158Z,4.90
2018-08-07T01:30:39.645Z,4.93
2018-08-07T01:33:08.163Z,4.90
2018-08-07T01:35:36.597Z,5.00
2018-08-07T01:38:05.381Z,5.10
2018-08-07T01:40:33.833Z,4.73
2018-08-07T01:43:02.260Z,4.80
2018-08-07T01:45:30.760Z,5.00
2018-08-07T01:47:59.154Z,5.10
2018-08-07T01:50:27.580Z,5.03
2018-08-07T01:52:56.003Z,4.87
2018-08-07T01:55:26.078Z,5.10
2018-08-07T01:57:54.473Z,5.40
2018-08-07T02:00:22.895Z,4.90
2018-08-07T02:02:51.599Z,5.23
2018-08-07T02:05:20.916Z,4.53
2018-08-07T02:07:49.416Z,5.17
2018-08-07T02:10:18.834Z,4.93
2018-08-07T02:12:47.316Z,5.03
2018-08-07T02:15:16.328Z,5.00
2018-08-07T02:17:44.837Z,5.00
2018-08-07T02:20:17.169Z,4.87
2018-08-07T02:22:46.001Z,5.20
2018-08-07T02:25:16.914Z,5.30
2018-08-07T02:27:45.788Z,5.23
2018-08-07T02:30:15.182Z,4.80
2018-08-07T02:32:43.672Z,5.17
2018-08-07T02:35:13.272Z,5.10
2018-08-07T02:37:42.724Z,4.83
2018-08-07T02:40:12.013Z,5.00
2018-08-07T02:42:40.643Z,5.00
2018-08-07T02:45:12.185Z,5.40
2018-08-07T02:47:41.310Z,5.37
2018-08-07T02:50:10.970Z,5.03
2018-08-07T02:52:39.430Z,5.17
2018-08-07T02:55:09.443Z,5.00
2018-08-07T02:57:38.127Z,5.40
2018-08-07T03:00:08.258Z,5.87
2018-08-07T03:02:36.707Z,5.53
2018-08-07T03:05:06.394Z,5.30
2018-08-07T03:07:34.893Z,5.50
2018-08-07T03:10:03.393Z,5.10
2018-08-07T03:12:31.868Z,5.20
2018-08-07T03:15:00.366Z,5.30
2018-08-07T03:17:28.808Z,5.30
2018-08-07T03:19:57.271Z,5.10
2018-08-07T03:22:26.398Z,5.03
2018-08-07T03:24:54.810Z,5.00
2018-08-07T03:27:23.226Z,5.00
2018-08-07T03:29:51.613Z,4.90
2018-08-07T03:32:20.031Z,5.00
2018-08-07T03:34:48.484Z,4.70
2018-08-07T03:37:16.841Z,5.00
2018-08-07T03:39:45.254Z,5.27
2018-08-07T03:42:13.702Z,5.17
2018-08-07T03:44:41.785Z,5.40
2018-08-07T03:47:09.932Z,5.20
2018-08-07T03:49:38.366Z,5.30
2018-08-07T03:52:06.816Z,5.40
2018-08-07T03:54:35.346Z,5.17
2018-08-07T03:57:04.812Z,5.40
2018-08-07T03:59:33.221Z,5.83
2018-08-07T04:02:01.652Z,5.40
2018-08-07T04:04:29.810Z,5.40
2018-08-07T04:06:58.250Z,5.40
2018-08-07T04:09:26.675Z,5.50
2018-08-07T04:11:55.091Z,4.90
2018-08-07T04:14:23.533Z,5.50
2018-08-07T04:16:55.425Z,4.57
2018-08-07T04:19:25.629Z,5.37
2018-08-07T04:21:54.472Z,5.07
2018-08-07T04:24:23.087Z,5.83
2018-08-07T04:26:51.609Z,5.67
2018-08-07T04:29:20.062Z,5.77
2018-08-07T04:31:48.494Z,5.83
2018-08-07T04:34:17.123Z,5.40
2018-08-07T04:36:45.578Z,5.13
2018-08-07T04:39:14.305Z,5.40
2018-08-07T04:41:42.909Z,5.53
2018-08-07T04:44:11.504Z,5.53
2018-08-07T04:46:39.616Z,5.10
2018-08-07T04:49:08.057Z,5.77
2018-08-07T04:51:36.922Z,5.83
2018-08-07T04:54:05.533Z,5.50
2018-08-07T04:56:34.077Z,5.70
2018-08-07T04:59:02.509Z,5.47
2018-08-07T05:01:30.998Z,5.87
2018-08-07T05:03:59.429Z,5.87
2018-08-07T05:06:27.832Z,5.67
2018-08-07T05:08:56.393Z,5.60
2018-08-07T05:11:24.840Z,5.67
2018-08-07T05:13:53.281Z,5.77
2018-08-07T05:16:21.714Z,5.67
2018-08-07T05:18:50.134Z,5.67
2018-08-07T05:21:18.598Z,5.70
2018-08-07T05:23:47.121Z,5.67
2018-08-07T05:26:15.593Z,6.33
2018-08-07T05:28:43.995Z,6.83
2018-08-07T05:31:12.534Z,6.70
2018-08-07T05:33:40.981Z,7.03
2018-08-07T05:36:09.450Z,6.77
2018-08-07T05:38:37.909Z,7.50
2018-08-07T05:41:06.349Z,7.83
2018-08-07T05:43:34.770Z,8.23
2018-08-07T05:46:03.322Z,8.13
2018-08-07T05:48:31.839Z,8.27
2018-08-07T05:51:00.725Z,8.60
2018-08-07T05:53:28.737Z,8.50
2018-08-07T05:55:57.223Z,9.20
2018-08-07T05:58:25.695Z,9.90
2018-08-07T06:00:54.101Z,9.80
2018-08-07T06:03:22.549Z,9.60
2018-08-07T06:05:51.036Z,10.87
2018-08-07T06:08:19.537Z,11.50
2018-08-07T06:10:48.088Z,13.23
2018-08-07T06:13:16.465Z,12.40
2018-08-07T06:15:44.894Z,14.87
2018-08-07T06:18:13.385Z,14.10
2018-08-07T06:20:41.816Z,13.67
2018-08-07T06:23:10.285Z,13.80
2018-08-07T06:25:38.821Z,13.90
2018-08-07T06:28:07.293Z,14.70
2018-08-07T06:30:35.787Z,14.07
2018-08-07T06:33:04.303Z,13.90
2018-08-07T06:35:32.777Z,14.87
2018-08-07T06:38:01.201Z,14.40
2018-08-07T06:40:29.675Z,15.87
2018-08-07T06:42:58.195Z,14.93
2018-08-07T06:45:26.609Z,15.37
2018-08-07T06:47:55.200Z,15.40
2018-08-07T06:50:23.610Z,17.53
2018-08-07T06:52:51.981Z,17.77
2018-08-07T06:55:20.469Z,16.37
2018-08-07T06:57:48.923Z,16.10
2018-08-07T07:00:22.171Z,16.23
2018-08-07T07:02:51.249Z,16.50
2018-08-07T07:05:19.854Z,16.70
2018-08-07T07:07:48.288Z,16.80
2018-08-07T07:10:17.325Z,15.53
2018-08-07T07:12:46.479Z,15.80
2018-08-07T07:15:16.050Z,16.00
2018-08-07T07:17:45.941Z,16.37
2018-08-07T07:20:15.680Z,15.00
2018-08-07T07:22:45.429Z,14.20
2018-08-07T07:25:13.898Z,14.40
2018-08-07T07:27:42.541Z,13.37
2018-08-07T07:30:14.505Z,14.17
2018-08-07T07:32:43.897Z,13.30
2018-08-07T07:35:12.357Z,13.90
2018-08-07T07:37:40.926Z,13.33
2018-08-07T07:40:09.353Z,11.70
2018-08-07T07:42:38.006Z,12.77
2018-08-07T07:45:09.733Z,15.00
2018-08-07T07:47:38.989Z,14.23
2018-08-07T07:50:10.130Z,14.80
2018-08-07T07:52:38.531Z,16.43
2018-08-07T07:55:07.949Z,14.00
2018-08-07T07:57:36.697Z,13.77
2018-08-07T08:00:07.585Z,16.77
2018-08-07T08:02:36.079Z,15.90
2018-08-07T08:05:05.070Z,17.07
2018-08-07T08:07:33.543Z,13.57
2018-08-07T08:10:02.065Z,16.73
2018-08-07T08:12:30.568Z,17.77
2018-08-07T08:14:59.250Z,16.50
2018-08-07T08:17:27.741Z,16.70
2018-08-07T08:19:56.359Z,16.87
2018-08-07T08:22:24.880Z,16.37
2018-08-07T08:24:53.434Z,14.30
2018-08-07T08:27:21.937Z,13.50
2018-08-07T08:29:50.640Z,12.13
2018-08-07T08:32:19.060Z,14.33
2018-08-07T08:34:47.174Z,15.30
2018-08-07T08:37:15.695Z,13.40
2018-08-07T08:39:44.249Z,12.33
2018-08-07T08:42:12.709Z,10.47
2018-08-07T08:44:41.177Z,13.57
2018-08-07T08:47:10.176Z,13.05
2018-08-07T08:49:38.674Z,10.90
2018-08-07T08:52:07.162Z,13.80
2018-08-07T08:54:35.557Z,14.50
2018-08-07T08:57:04.050Z,12.70
2018-08-07T08:59:32.506Z,12.53
2018-08-07T09:02:00.985Z,10.53
2018-08-07T09:04:29.460Z,9.50
2018-08-07T09:06:58.437Z,9.93
2018-08-07T09:09:26.841Z,10.83
2018-08-07T09:11:55.467Z,8.17
2018-08-07T09:14:23.892Z,7.97
2018-08-07T09:16:52.321Z,7.50
2018-08-07T09:19:20.888Z,7.77
2018-08-07T09:21:49.406Z,7.03
2018-08-07T09:24:17.973Z,7.20
2018-08-07T09:26:46.441Z,6.63
2018-08-07T09:29:14.869Z,7.57
2018-08-07T09:31:43.389Z,7.67
2018-08-07T09:34:11.789Z,7.00
2018-08-07T09:36:40.225Z,6.77
2018-08-07T09:39:11.102Z,7.03
2018-08-07T09:41:39.535Z,8.10
2018-08-07T09:44:09.769Z,6.63
2018-08-07T09:46:37.989Z,6.13
2018-08-07T09:49:07.425Z,5.70
2018-08-07T09:51:36.216Z,5.43
2018-08-07T09:54:04.665Z,4.73
2018-08-07T09:56:33.166Z,5.77
2018-08-07T09:59:01.695Z,5.80
2018-08-07T10:01:37.311Z,6.00
2018-08-07T10:04:05.754Z,4.03
2018-08-07T10:06:34.182Z,5.23
2018-08-07T10:09:02.646Z,5.60
2018-08-07T10:11:31.134Z,5.33
2018-08-07T10:13:59.521Z,4.93
2018-08-07T10:16:27.953Z,4.93
2018-08-07T10:18:56.332Z,5.60
2018-08-07T10:21:25.054Z,4.10
2018-08-07T10:23:53.465Z,4.07
2018-08-07T10:26:21.965Z,4.30
2018-08-07T10:28:50.448Z,5.27
2018-08-07T10:31:18.941Z,4.30
2018-08-07T10:33:47.419Z,5.47
2018-08-07T10:36:16.279Z,5.30
2018-08-07T10:38:44.745Z,5.07
2018-08-07T10:41:13.209Z,5.10
2018-08-07T10:43:41.768Z,4.27
2018-08-07T10:46:10.123Z,4.00
2018-08-07T10:48:38.577Z,4.93
2018-08-07T10:51:07.020Z,4.50
2018-08-07T10:53:35.384Z,4.80
2018-08-07T10:56:03.808Z,4.40
2018-08-07T10:58:32.325Z,4.40
2018-08-07T11:01:00.774Z,4.90
2018-08-07T11:03:29.235Z,5.37
2018-08-07T11:05:57.606Z,4.63
2018-08-07T11:08:26.122Z,4.23
2018-08-07T11:10:54.625Z,4.30
2018-08-07T11:13:23.067Z,4.30
2018-08-07T11:15:51.508Z,4.33
2018-08-07T11:18:20.732Z,4.50
2018-08-07T11:20:49.312Z,4.53
2018-08-07T11:23:17.732Z,4.57
2018-08-07T11:25:46.163Z,4.43
2018-08-07T11:28:14.600Z,4.47
2018-08-07T11:30:43.052Z,4.43
2018-08-07T11:33:11.529Z,4.00
2018-08-07T11:35:39.941Z,4.20
2018-08-07T11:38:08.383Z,4.10
2018-08-07T11:40:36.801Z,4.07
2018-08-07T11:43:05.289Z,4.13
2018-08-07T11:45:33.730Z,4.07
2018-08-07T11:48:02.259Z,3.70
2018-08-07T11:50:32.023Z,4.13
2018-08-07T11:53:00.518Z,4.13
2018-08-07T11:55:29.050Z,3.60
2018-08-07T11:57:57.514Z,3.90
2018-08-07T12:00:32.353Z,4.40
2018-08-07T12:03:00.942Z,4.50
2018-08-07T12:05:30.038Z,4.03
2018-08-07T12:07:58.518Z,4.20
2018-08-07T12:10:58.065Z,4.23
2018-08-07T12:13:26.528Z,4.00
2018-08-07T12:15:54.985Z,4.23
2018-08-07T12:18:23.433Z,4.10
2018-08-07T12:20:51.833Z,4.50
2018-08-07T12:23:20.248Z,3.80
2018-08-07T12:25:48.667Z,4.00
2018-08-07T12:28:17.213Z,3.63
2018-08-07T12:30:45.684Z,3.63
2018-08-07T12:33:14.055Z,4.10
2018-08-07T12:35:42.664Z,4.30
2018-08-07T12:38:11.172Z,4.00
2018-08-07T12:40:39.606Z,3.57
2018-08-07T12:43:08.171Z,3.87
2018-08-07T12:45:36.567Z,3.80
2018-08-07T12:48:05.202Z,4.10
2018-08-07T12:50:33.621Z,3.90
2018-08-07T12:53:02.070Z,4.40
2018-08-07T12:55:30.561Z,4.10
2018-08-07T12:57:59.083Z,4.37
2018-08-07T13:00:30.405Z,4.10
2018-08-07T13:02:58.920Z,4.40
2018-08-07T13:05:27.377Z,4.67
2018-08-07T13:07:56.008Z,4.37
2018-08-07T13:10:25.311Z,4.40
2018-08-07T13:12:54.521Z,4.20
2018-08-07T13:15:23.367Z,4.00
2018-08-07T13:17:51.838Z,3.93
2018-08-07T13:20:20.330Z,3.70
2018-08-07T13:22:49.187Z,4.10
2018-08-07T13:25:19.909Z,3.60
2018-08-07T13:27:48.447Z,4.00
2018-08-07T13:30:20.500Z,3.70
2018-08-07T13:32:49.011Z,3.60
2018-08-07T13:35:18.008Z,3.77
2018-08-07T13:37:48.127Z,3.90
2018-08-07T13:40:17.980Z,3.73
2018-08-07T13:42:46.487Z,3.57
2018-08-07T13:45:17.488Z,3.70
2018-08-07T13:47:45.972Z,4.00
2018-08-07T13:50:17.015Z,3.80
2018-08-07T13:52:46.236Z,3.80
2018-08-07T13:55:15.895Z,3.70
2018-08-07T13:57:44.642Z,3.37
2018-08-07T14:00:27.521Z,3.43
2018-08-07T14:02:56.676Z,3.37
2018-08-07T14:05:25.753Z,3.30
2018-08-07T14:07:55.765Z,3.50
2018-08-07T14:10:25.475Z,3.40
2018-08-07T14:12:53.953Z,3.13
2018-08-07T14:15:23.609Z,3.40
2018-08-07T14:17:52.129Z,3.47
2018-08-07T14:20:21.206Z,3.37
2018-08-07T14:22:50.367Z,3.83
2018-08-07T14:25:21.984Z,3.53
2018-08-07T14:27:50.529Z,3.57
2018-08-07T14:30:28.421Z,3.30
2018-08-07T14:32:57.513Z,3.70
2018-08-07T14:35:26.061Z,3.50
2018-08-07T14:37:54.616Z,3.10
2018-08-07T14:40:24.557Z,3.13
2018-08-07T14:42:53.561Z,3.27
2018-08-07T14:45:23.300Z,3.53
2018-08-07T14:47:52.516Z,3.57
2018-08-07T14:50:22.618Z,3.43
2018-08-07T14:52:51.140Z,3.20
2018-08-07T14:55:19.669Z,3.53
2018-08-07T14:57:48.349Z,3.20
2018-08-07T15:00:19.651Z,3.13
2018-08-07T15:02:48.485Z,3.50
2018-08-07T15:05:16.957Z,3.20
2018-08-07T15:07:45.914Z,3.00
2018-08-07T15:10:16.413Z,3.43
2018-08-07T15:12:46.431Z,3.13
2018-08-07T15:15:17.550Z,3.60
2018-08-07T15:17:46.061Z,3.10
2018-08-07T15:20:16.235Z,3.30
2018-08-07T15:22:47.043Z,3.20
2018-08-07T15:25:16.274Z,3.07
2018-08-07T15:27:44.738Z,3.07
2018-08-07T15:30:16.099Z,3.07
2018-08-07T15:32:45.360Z,3.20
2018-08-07T15:35:14.784Z,3.30
2018-08-07T15:37:43.653Z,2.80
2018-08-07T15:40:12.446Z,3.00
2018-08-07T15:42:41.899Z,3.07
2018-08-07T15:45:10.768Z,2.67
2018-08-07T15:47:39.389Z,2.63
2018-08-07T15:50:11.117Z,2.57
2018-08-07T15:52:40.487Z,2.67
2018-08-07T15:55:09.430Z,2.60
2018-08-07T15:57:37.972Z,2.70
2018-08-07T16:00:09.126Z,2.80
2018-08-07T16:02:39.490Z,2.60
2018-08-07T16:05:07.929Z,2.70
2018-08-07T16:07:37.412Z,2.70
2018-08-07T16:10:08.549Z,2.60
2018-08-07T16:12:37.121Z,2.50
2018-08-07T16:15:06.298Z,2.60
2018-08-07T16:17:34.821Z,2.90
2018-08-07T16:20:03.343Z,2.80
2018-08-07T16:22:32.021Z,2.80
2018-08-07T16:25:00.317Z,2.90
2018-08-07T16:27:28.826Z,3.10
2018-08-07T16:29:57.287Z,2.87
2018-08-07T16:32:25.828Z,3.07
2018-08-07T16:34:54.275Z,3.00
2018-08-07T16:37:29.275Z,2.90
2018-08-07T16:39:57.681Z,2.97
2018-08-07T16:42:26.185Z,2.80
2018-08-07T16:44:54.665Z,2.93
2018-08-07T16:47:23.128Z,3.07
2018-08-07T16:49:51.553Z,3.00
2018-08-07T16:52:20.113Z,3.20
2018-08-07T16:54:48.581Z,3.03
2018-08-07T16:57:17.013Z,3.20
2018-08-07T16:59:45.683Z,2.83
2018-08-07T17:02:14.146Z,2.90
2018-08-07T17:04:42.577Z,3.10
2018-08-07T17:07:11.096Z,2.90
2018-08-07T17:09:39.528Z,2.90
2018-08-07T17:12:07.981Z,3.13
2018-08-07T17:14:36.417Z,3.20
2018-08-07T17:17:04.878Z,3.17
2018-08-07T17:19:33.482Z,2.60
2018-08-07T17:22:02.822Z,3.20
2018-08-07T17:24:31.271Z,3.27
2018-08-07T17:26:59.728Z,3.17
2018-08-07T17:29:28.351Z,3.30
2018-08-07T17:31:56.826Z,3.13
2018-08-07T17:34:25.494Z,3.20
2018-08-07T17:36:53.997Z,3.20
2018-08-07T17:39:22.415Z,3.20
2018-08-07T17:41:51.025Z,3.10
2018-08-07T17:44:19.541Z,3.50
2018-08-07T17:46:47.993Z,3.10
2018-08-07T17:49:16.424Z,3.30
2018-08-07T17:51:44.837Z,3.40
2018-08-07T17:54:13.256Z,3.60
2018-08-07T17:56:41.666Z,3.47
2018-08-07T17:59:10.160Z,3.30
2018-08-07T18:01:38.621Z,3.30
2018-08-07T18:04:07.152Z,3.10
2018-08-07T18:06:35.730Z,3.37
2018-08-07T18:09:06.699Z,3.90
2018-08-07T18:11:35.103Z,3.20
2018-08-07T18:14:03.713Z,3.50
2018-08-07T18:16:32.198Z,4.87
2018-08-07T18:19:01.103Z,4.20
2018-08-07T18:21:29.614Z,3.40
2018-08-07T18:23:58.072Z,3.40
2018-08-07T18:26:26.682Z,3.47
2018-08-07T18:28:55.220Z,3.70
2018-08-07T18:31:23.946Z,3.60
2018-08-07T18:33:52.632Z,3.40
2018-08-07T18:36:21.356Z,3.37
2018-08-07T18:38:51.259Z,3.50
2018-08-07T18:41:19.801Z,3.80
2018-08-07T18:43:48.465Z,3.53
2018-08-07T18:46:17.104Z,3.80
2018-08-07T18:48:46.301Z,3.90
2018-08-07T18:51:15.037Z,3.80
2018-08-07T18:53:43.609Z,3.80
2018-08-07T18:56:12.298Z,3.73
2018-08-07T18:58:41.039Z,3.70
2018-08-07T19:01:10.062Z,3.90
2018-08-07T19:03:39.035Z,4.00
2018-08-07T19:06:07.884Z,3.67
2018-08-07T19:08:36.481Z,4.10
2018-08-07T19:11:04.929Z,3.67
2018-08-07T19:13:33.809Z,4.77
2018-08-07T19:16:02.396Z,4.00
2018-08-07T19:18:31.236Z,4.37
2018-08-07T19:21:00.689Z,3.97
2018-08-07T19:23:29.682Z,3.90
2018-08-07T19:25:58.425Z,4.63
2018-08-07T19:28:26.913Z,4.87
2018-08-07T19:30:57.720Z,4.60
2018-08-07T19:33:26.222Z,4.40
2018-08-07T19:35:55.023Z,4.70
2018-08-07T19:38:23.514Z,4.60
2018-08-07T19:40:52.597Z,4.37
2018-08-07T19:43:21.180Z,4.70
2018-08-07T19:45:49.758Z,4.50
2018-08-07T19:48:18.556Z,4.77
2018-08-07T19:50:47.592Z,4.77
2018-08-07T19:53:16.394Z,4.53
2018-08-07T19:55:45.151Z,5.40
2018-08-07T19:58:13.534Z,4.70
2018-08-07T20:00:42.114Z,5.30
2018-08-07T20:03:10.608Z,5.43
2018-08-07T20:05:39.404Z,4.67
2018-08-07T20:08:08.212Z,4.93
2018-08-07T20:10:37.097Z,4.93
2018-08-07T20:13:05.931Z,4.90
2018-08-07T20:15:34.555Z,4.57
2018-08-07T20:18:03.461Z,4.97
2018-08-07T20:20:31.920Z,4.60
2018-08-07T20:23:00.320Z,4.10
2018-08-07T20:25:28.789Z,4.83
2018-08-07T20:27:57.309Z,4.40
2018-08-07T20:30:26.157Z,4.67
2018-08-07T20:32:56.104Z,4.70
2018-08-07T20:35:24.720Z,3.97
2018-08-07T20:37:53.332Z,4.63
2018-08-07T20:40:25.517Z,3.90
2018-08-07T20:42:55.317Z,3.90
2018-08-07T20:45:23.909Z,4.23
2018-08-07T20:47:52.585Z,3.57
2018-08-07T20:50:22.976Z,3.83
2018-08-07T20:52:52.122Z,3.43
2018-08-07T20:55:20.682Z,3.73
2018-08-07T20:57:49.209Z,4.07
2018-08-07T21:00:19.937Z,4.10
2018-08-07T21:02:48.690Z,4.13
2018-08-07T21:05:17.201Z,4.20
2018-08-07T21:07:45.721Z,4.10
2018-08-07T21:10:15.881Z,4.20
2018-08-07T21:12:48.195Z,4.63
2018-08-07T21:15:16.652Z,4.70
2018-08-07T21:17:45.116Z,4.37
2018-08-07T21:20:16.089Z,4.33
2018-08-07T21:22:45.105Z,4.57
2018-08-07T21:25:16.448Z,4.60
2018-08-07T21:27:45.524Z,4.27
2018-08-07T21:30:16.696Z,3.90
2018-08-07T21:32:45.793Z,3.70
2018-08-07T21:35:14.214Z,4.30
2018-08-07T21:37:42.802Z,4.43
2018-08-07T21:40:15.505Z,4.20
2018-08-07T21:42:44.201Z,4.10
2018-08-07T21:45:12.897Z,4.30
2018-08-07T21:47:41.395Z,4.43
2018-08-07T21:50:16.508Z,4.30
2018-08-07T21:52:44.964Z,4.33
2018-08-07T21:55:16.189Z,4.17
2018-08-07T21:57:44.649Z,4.17
2018-08-07T22:00:16.053Z,4.57
2018-08-07T22:02:44.776Z,4.90
2018-08-07T22:05:13.325Z,4.40
2018-08-07T22:07:41.749Z,4.10
2018-08-07T22:10:17.083Z,4.00
2018-08-07T22:12:45.749Z,4.20
2018-08-07T22:15:14.935Z,5.13
2018-08-07T22:17:43.556Z,5.23
2018-08-07T22:20:12.961Z,4.25
2018-08-07T22:22:41.481Z,4.47
2018-08-07T22:25:10.461Z,4.23
2018-08-07T22:27:39.040Z,4.70
2018-08-07T22:30:09.752Z,4.53
2018-08-07T22:32:38.335Z,4.97
2018-08-07T22:35:07.674Z,4.50
2018-08-07T22:37:36.223Z,4.10
2018-08-07T22:40:05.496Z,4.50
2018-08-07T22:42:34.334Z,4.43
2018-08-07T22:45:02.757Z,4.07
2018-08-07T22:47:31.260Z,4.37
2018-08-07T22:49:59.844Z,4.37
2018-08-07T22:52:28.348Z,3.80
2018-08-07T22:54:56.797Z,4.37
2018-08-07T22:57:25.512Z,7.40
2018-08-07T22:59:53.925Z,6.30
2018-08-07T23:02:22.374Z,6.10
2018-08-07T23:04:50.801Z,8.53
2018-08-07T23:07:19.865Z,8.77
2018-08-07T23:09:48.390Z,6.00
2018-08-07T23:12:17.309Z,8.20
2018-08-07T23:14:45.692Z,6.60
2018-08-07T23:17:14.089Z,6.20
2018-08-07T23:19:42.506Z,5.30
2018-08-07T23:22:10.900Z,6.63
2018-08-07T23:24:39.392Z,6.07
2018-08-07T23:27:07.792Z,6.20
2018-08-07T23:29:36.173Z,4.53
2018-08-07T23:32:04.710Z,5.50
2018-08-07T23:34:33.117Z,5.43
2018-08-07T23:37:01.543Z,5.63
2018-08-07T23:39:30.075Z,6.17
2018-08-07T23:41:58.422Z,6.73
2018-08-07T23:44:26.833Z,5.90
2018-08-07T23:46:55.216Z,5.70
2018-08-07T23:49:23.576Z,5.50
2018-08-07T23:51:52.034Z,5.67
2018-08-07T23:54:21.125Z,5.60
2018-08-07T23:56:49.873Z,6.00
2018-08-07T23:59:18.308Z,6.00
